sensor_id;sensor_type;location;lat;lon;timestamp;P1;durP1;ratioP1;P2;durP2;ratioP2
64029;SDS011;50277;52.064;4.492;2024-03-22T00:01:04;45.83;;;24.63;;
64029;SDS011;50277;52.064;4.492;2024-03-22T00:03:29;45.35;;;23.52;;
64029;SDS011;50277;52.064;4.492;2024-03-22T00:05:54;44.75;;;23.05;;
64029;SDS011;50277;52.064;4.492;2024-03-22T00:08:20;45.53;;;22.75;;
64029;SDS011;50277;52.064;4.492;2024-03-22T00:10:45;50.72;;;22.75;;
64029;SDS011;50277;52.064;4.492;2024-03-22T00:13:10;46.85;;;24.20;;
64029;SDS011;50277;52.064;4.492;2024-03-22T00:15:36;41.28;;;20.55;;
64029;SDS011;50277;52.064;4.492;2024-03-22T00:18:02;43.38;;;22.67;;
64029;SDS011;50277;52.064;4.492;2024-03-22T00:20:27;42.97;;;23.00;;
64029;SDS011;50277;52.064;4.492;2024-03-22T00:22:52;44.35;;;21.20;;
64029;SDS011;50277;52.064;4.492;2024-03-22T00:25:18;45.15;;;22.88;;
64029;SDS011;50277;52.064;4.492;2024-03-22T00:27:43;44.45;;;21.67;;
64029;SDS011;50277;52.064;4.492;2024-03-22T00:30:08;44.35;;;21.55;;
64029;SDS011;50277;52.064;4.492;2024-03-22T00:32:34;39.85;;;20.80;;
64029;SDS011;50277;52.064;4.492;2024-03-22T00:34:59;45.33;;;21.38;;
64029;SDS011;50277;52.064;4.492;2024-03-22T00:37:25;47.03;;;22.75;;
64029;SDS011;50277;52.064;4.492;2024-03-22T00:39:50;45.28;;;21.67;;
64029;SDS011;50277;52.064;4.492;2024-03-22T00:42:15;53.08;;;24.67;;
64029;SDS011;50277;52.064;4.492;2024-03-22T00:44:41;53.08;;;24.05;;
64029;SDS011;50277;52.064;4.492;2024-03-22T00:47:06;52.00;;;22.63;;
64029;SDS011;50277;52.064;4.492;2024-03-22T00:49:32;59.25;;;23.27;;
64029;SDS011;50277;52.064;4.492;2024-03-22T00:51:57;50.55;;;23.08;;
64029;SDS011;50277;52.064;4.492;2024-03-22T00:54:22;53.20;;;23.70;;
64029;SDS011;50277;52.064;4.492;2024-03-22T00:56:48;52.35;;;22.23;;
64029;SDS011;50277;52.064;4.492;2024-03-22T00:59:13;49.38;;;20.70;;
64029;SDS011;50277;52.064;4.492;2024-03-22T01:01:38;46.88;;;22.38;;
64029;SDS011;50277;52.064;4.492;2024-03-22T01:04:04;52.58;;;24.88;;
64029;SDS011;50277;52.064;4.492;2024-03-22T01:06:29;54.05;;;23.38;;
64029;SDS011;50277;52.064;4.492;2024-03-22T01:08:54;54.05;;;23.92;;
64029;SDS011;50277;52.064;4.492;2024-03-22T01:11:20;51.22;;;23.20;;
64029;SDS011;50277;52.064;4.492;2024-03-22T01:13:45;47.72;;;23.45;;
64029;SDS011;50277;52.064;4.492;2024-03-22T01:16:11;44.15;;;22.23;;
64029;SDS011;50277;52.064;4.492;2024-03-22T01:18:36;50.92;;;23.90;;
64029;SDS011;50277;52.064;4.492;2024-03-22T01:21:02;46.88;;;23.20;;
64029;SDS011;50277;52.064;4.492;2024-03-22T01:23:27;47.47;;;23.63;;
64029;SDS011;50277;52.064;4.492;2024-03-22T01:25:53;48.13;;;22.55;;
64029;SDS011;50277;52.064;4.492;2024-03-22T01:28:18;51.13;;;23.67;;
64029;SDS011;50277;52.064;4.492;2024-03-22T01:30:44;46.38;;;22.48;;
64029;SDS011;50277;52.064;4.492;2024-03-22T01:33:10;56.10;;;24.52;;
64029;SDS011;50277;52.064;4.492;2024-03-22T01:35:35;41.72;;;21.75;;
64029;SDS011;50277;52.064;4.492;2024-03-22T01:38:00;40.15;;;21.23;;
64029;SDS011;50277;52.064;4.492;2024-03-22T01:40:26;33.42;;;19.10;;
64029;SDS011;50277;52.064;4.492;2024-03-22T01:42:57;31.98;;;18.75;;
64029;SDS011;50277;52.064;4.492;2024-03-22T01:45:23;32.15;;;18.15;;
64029;SDS011;50277;52.064;4.492;2024-03-22T01:47:52;29.13;;;16.88;;
64029;SDS011;50277;52.064;4.492;2024-03-22T01:50:19;28.88;;;17.17;;
64029;SDS011;50277;52.064;4.492;2024-03-22T01:52:44;28.92;;;16.85;;
64029;SDS011;50277;52.064;4.492;2024-03-22T01:55:10;28.35;;;17.05;;
64029;SDS011;50277;52.064;4.492;2024-03-22T01:57:35;24.30;;;15.70;;
64029;SDS011;50277;52.064;4.492;2024-03-22T02:00:01;34.20;;;16.83;;
64029;SDS011;50277;52.064;4.492;2024-03-22T02:02:26;31.30;;;18.13;;
64029;SDS011;50277;52.064;4.492;2024-03-22T02:04:52;28.15;;;16.23;;
64029;SDS011;50277;52.064;4.492;2024-03-22T02:07:17;28.35;;;16.48;;
64029;SDS011;50277;52.064;4.492;2024-03-22T02:09:42;29.00;;;16.75;;
64029;SDS011;50277;52.064;4.492;2024-03-22T02:12:08;25.80;;;16.23;;
64029;SDS011;50277;52.064;4.492;2024-03-22T02:14:34;32.90;;;18.13;;
64029;SDS011;50277;52.064;4.492;2024-03-22T02:16:59;35.25;;;18.40;;
64029;SDS011;50277;52.064;4.492;2024-03-22T02:19:24;29.38;;;17.00;;
64029;SDS011;50277;52.064;4.492;2024-03-22T02:21:49;25.95;;;16.23;;
64029;SDS011;50277;52.064;4.492;2024-03-22T02:24:15;30.98;;;16.80;;
64029;SDS011;50277;52.064;4.492;2024-03-22T02:26:40;29.48;;;17.40;;
64029;SDS011;50277;52.064;4.492;2024-03-22T02:29:05;28.80;;;17.65;;
64029;SDS011;50277;52.064;4.492;2024-03-22T02:31:31;29.00;;;17.10;;
64029;SDS011;50277;52.064;4.492;2024-03-22T02:33:57;39.70;;;18.73;;
64029;SDS011;50277;52.064;4.492;2024-03-22T02:36:23;32.17;;;18.05;;
64029;SDS011;50277;52.064;4.492;2024-03-22T02:38:48;36.78;;;16.70;;
64029;SDS011;50277;52.064;4.492;2024-03-22T02:41:13;26.50;;;15.55;;
64029;SDS011;50277;52.064;4.492;2024-03-22T02:43:39;34.33;;;15.52;;
64029;SDS011;50277;52.064;4.492;2024-03-22T02:46:04;33.22;;;16.30;;
64029;SDS011;50277;52.064;4.492;2024-03-22T02:48:29;31.38;;;16.23;;
64029;SDS011;50277;52.064;4.492;2024-03-22T02:50:56;33.70;;;16.85;;
64029;SDS011;50277;52.064;4.492;2024-03-22T02:53:22;35.40;;;16.13;;
64029;SDS011;50277;52.064;4.492;2024-03-22T02:55:47;33.90;;;15.10;;
64029;SDS011;50277;52.064;4.492;2024-03-22T02:58:12;29.92;;;14.25;;
64029;SDS011;50277;52.064;4.492;2024-03-22T03:00:38;36.95;;;16.52;;
64029;SDS011;50277;52.064;4.492;2024-03-22T03:03:04;33.97;;;16.08;;
64029;SDS011;50277;52.064;4.492;2024-03-22T03:05:32;31.00;;;15.27;;
64029;SDS011;50277;52.064;4.492;2024-03-22T03:07:58;33.15;;;15.57;;
64029;SDS011;50277;52.064;4.492;2024-03-22T03:10:23;33.95;;;14.50;;
64029;SDS011;50277;52.064;4.492;2024-03-22T03:12:48;34.50;;;16.42;;
64029;SDS011;50277;52.064;4.492;2024-03-22T03:15:14;26.88;;;15.80;;
64029;SDS011;50277;52.064;4.492;2024-03-22T03:17:41;28.58;;;14.73;;
64029;SDS011;50277;52.064;4.492;2024-03-22T03:20:06;29.17;;;14.82;;
64029;SDS011;50277;52.064;4.492;2024-03-22T03:22:33;29.92;;;15.63;;
64029;SDS011;50277;52.064;4.492;2024-03-22T03:24:59;38.03;;;16.33;;
64029;SDS011;50277;52.064;4.492;2024-03-22T03:27:24;29.05;;;14.57;;
64029;SDS011;50277;52.064;4.492;2024-03-22T03:29:50;30.33;;;13.95;;
64029;SDS011;50277;52.064;4.492;2024-03-22T03:32:15;27.05;;;14.60;;
64029;SDS011;50277;52.064;4.492;2024-03-22T03:34:40;29.95;;;14.25;;
64029;SDS011;50277;52.064;4.492;2024-03-22T03:37:06;26.30;;;13.55;;
64029;SDS011;50277;52.064;4.492;2024-03-22T03:39:31;26.20;;;13.40;;
64029;SDS011;50277;52.064;4.492;2024-03-22T03:41:56;30.67;;;13.18;;
64029;SDS011;50277;52.064;4.492;2024-03-22T03:44:22;34.38;;;13.27;;
64029;SDS011;50277;52.064;4.492;2024-03-22T03:46:47;32.00;;;12.15;;
64029;SDS011;50277;52.064;4.492;2024-03-22T03:49:12;29.30;;;11.95;;
64029;SDS011;50277;52.064;4.492;2024-03-22T03:51:38;29.30;;;12.45;;
64029;SDS011;50277;52.064;4.492;2024-03-22T03:54:03;25.95;;;12.13;;
64029;SDS011;50277;52.064;4.492;2024-03-22T03:56:29;23.55;;;12.00;;
64029;SDS011;50277;52.064;4.492;2024-03-22T03:58:54;22.40;;;11.77;;
64029;SDS011;50277;52.064;4.492;2024-03-22T04:01:20;29.20;;;12.50;;
64029;SDS011;50277;52.064;4.492;2024-03-22T04:03:45;26.33;;;10.93;;
64029;SDS011;50277;52.064;4.492;2024-03-22T04:06:10;24.15;;;12.00;;
64029;SDS011;50277;52.064;4.492;2024-03-22T04:08:36;24.40;;;11.43;;
64029;SDS011;50277;52.064;4.492;2024-03-22T04:11:01;36.00;;;12.25;;
64029;SDS011;50277;52.064;4.492;2024-03-22T04:13:27;26.85;;;11.20;;
64029;SDS011;50277;52.064;4.492;2024-03-22T04:15:53;30.55;;;11.38;;
64029;SDS011;50277;52.064;4.492;2024-03-22T04:18:19;33.33;;;11.80;;
64029;SDS011;50277;52.064;4.492;2024-03-22T04:20:54;28.27;;;10.73;;
64029;SDS011;50277;52.064;4.492;2024-03-22T04:23:23;32.85;;;12.30;;
64029;SDS011;50277;52.064;4.492;2024-03-22T04:25:55;23.48;;;10.40;;
64029;SDS011;50277;52.064;4.492;2024-03-22T04:28:24;23.08;;;10.18;;
64029;SDS011;50277;52.064;4.492;2024-03-22T04:31:00;31.90;;;10.98;;
64029;SDS011;50277;52.064;4.492;2024-03-22T04:33:26;34.03;;;11.48;;
64029;SDS011;50277;52.064;4.492;2024-03-22T04:35:53;25.38;;;11.30;;
64029;SDS011;50277;52.064;4.492;2024-03-22T04:38:19;25.38;;;10.57;;
64029;SDS011;50277;52.064;4.492;2024-03-22T04:40:44;25.80;;;10.02;;
64029;SDS011;50277;52.064;4.492;2024-03-22T04:43:09;32.30;;;11.38;;
64029;SDS011;50277;52.064;4.492;2024-03-22T04:45:35;25.48;;;10.45;;
64029;SDS011;50277;52.064;4.492;2024-03-22T04:48:03;25.08;;;10.02;;
64029;SDS011;50277;52.064;4.492;2024-03-22T04:50:29;35.55;;;12.32;;
64029;SDS011;50277;52.064;4.492;2024-03-22T04:52:55;26.45;;;10.88;;
64029;SDS011;50277;52.064;4.492;2024-03-22T04:55:20;23.55;;;10.10;;
64029;SDS011;50277;52.064;4.492;2024-03-22T04:57:46;35.92;;;12.65;;
64029;SDS011;50277;52.064;4.492;2024-03-22T05:00:11;26.90;;;11.15;;
64029;SDS011;50277;52.064;4.492;2024-03-22T05:02:37;30.08;;;11.57;;
64029;SDS011;50277;52.064;4.492;2024-03-22T05:05:03;24.00;;;11.88;;
64029;SDS011;50277;52.064;4.492;2024-03-22T05:07:28;33.58;;;12.35;;
64029;SDS011;50277;52.064;4.492;2024-03-22T05:09:54;31.85;;;12.90;;
64029;SDS011;50277;52.064;4.492;2024-03-22T05:12:19;29.80;;;12.80;;
64029;SDS011;50277;52.064;4.492;2024-03-22T05:14:44;30.83;;;11.95;;
64029;SDS011;50277;52.064;4.492;2024-03-22T05:17:09;26.65;;;11.43;;
64029;SDS011;50277;52.064;4.492;2024-03-22T05:19:35;25.10;;;10.73;;
64029;SDS011;50277;52.064;4.492;2024-03-22T05:22:00;28.65;;;9.98;;
64029;SDS011;50277;52.064;4.492;2024-03-22T05:24:26;21.08;;;9.88;;
64029;SDS011;50277;52.064;4.492;2024-03-22T05:26:51;29.60;;;10.13;;
64029;SDS011;50277;52.064;4.492;2024-03-22T05:29:17;29.13;;;10.75;;
64029;SDS011;50277;52.064;4.492;2024-03-22T05:31:48;25.33;;;11.13;;
64029;SDS011;50277;52.064;4.492;2024-03-22T05:34:16;26.48;;;11.05;;
64029;SDS011;50277;52.064;4.492;2024-03-22T05:36:41;29.70;;;10.57;;
64029;SDS011;50277;52.064;4.492;2024-03-22T05:39:07;24.50;;;10.80;;
64029;SDS011;50277;52.064;4.492;2024-03-22T05:41:33;26.30;;;9.98;;
64029;SDS011;50277;52.064;4.492;2024-03-22T05:43:58;28.60;;;11.60;;
64029;SDS011;50277;52.064;4.492;2024-03-22T05:46:23;28.50;;;11.25;;
64029;SDS011;50277;52.064;4.492;2024-03-22T05:48:49;36.35;;;12.38;;
64029;SDS011;50277;52.064;4.492;2024-03-22T05:51:15;26.67;;;10.88;;
64029;SDS011;50277;52.064;4.492;2024-03-22T05:53:41;25.38;;;11.02;;
64029;SDS011;50277;52.064;4.492;2024-03-22T05:56:07;29.13;;;11.80;;
64029;SDS011;50277;52.064;4.492;2024-03-22T05:58:33;29.27;;;11.52;;
64029;SDS011;50277;52.064;4.492;2024-03-22T06:00:58;27.20;;;11.95;;
64029;SDS011;50277;52.064;4.492;2024-03-22T06:03:23;22.05;;;11.43;;
64029;SDS011;50277;52.064;4.492;2024-03-22T06:05:49;26.67;;;11.68;;
64029;SDS011;50277;52.064;4.492;2024-03-22T06:08:14;28.02;;;12.10;;
64029;SDS011;50277;52.064;4.492;2024-03-22T06:10:44;30.52;;;12.50;;
64029;SDS011;50277;52.064;4.492;2024-03-22T06:13:10;26.13;;;11.07;;
64029;SDS011;50277;52.064;4.492;2024-03-22T06:15:35;28.83;;;11.98;;
64029;SDS011;50277;52.064;4.492;2024-03-22T06:18:01;27.05;;;13.13;;
64029;SDS011;50277;52.064;4.492;2024-03-22T06:20:26;25.75;;;10.93;;
64029;SDS011;50277;52.064;4.492;2024-03-22T06:22:52;27.52;;;11.30;;
64029;SDS011;50277;52.064;4.492;2024-03-22T06:25:17;29.60;;;11.15;;
64029;SDS011;50277;52.064;4.492;2024-03-22T06:27:42;35.80;;;11.68;;
64029;SDS011;50277;52.064;4.492;2024-03-22T06:30:08;24.90;;;10.25;;
64029;SDS011;50277;52.064;4.492;2024-03-22T06:32:33;32.92;;;9.93;;
64029;SDS011;50277;52.064;4.492;2024-03-22T06:34:59;24.88;;;9.80;;
64029;SDS011;50277;52.064;4.492;2024-03-22T06:37:24;25.85;;;9.57;;
64029;SDS011;50277;52.064;4.492;2024-03-22T06:39:49;19.73;;;8.50;;
64029;SDS011;50277;52.064;4.492;2024-03-22T06:42:15;27.00;;;9.25;;
64029;SDS011;50277;52.064;4.492;2024-03-22T06:44:40;26.02;;;9.05;;
64029;SDS011;50277;52.064;4.492;2024-03-22T06:47:05;24.50;;;8.82;;
64029;SDS011;50277;52.064;4.492;2024-03-22T06:49:31;23.13;;;8.02;;
64029;SDS011;50277;52.064;4.492;2024-03-22T06:51:56;27.67;;;8.10;;
64029;SDS011;50277;52.064;4.492;2024-03-22T06:54:21;22.70;;;8.80;;
64029;SDS011;50277;52.064;4.492;2024-03-22T06:56:47;18.75;;;7.53;;
64029;SDS011;50277;52.064;4.492;2024-03-22T06:59:13;23.75;;;7.80;;
64029;SDS011;50277;52.064;4.492;2024-03-22T07:01:38;24.73;;;7.95;;
64029;SDS011;50277;52.064;4.492;2024-03-22T07:04:04;24.48;;;8.75;;
64029;SDS011;50277;52.064;4.492;2024-03-22T07:06:29;23.58;;;8.23;;
64029;SDS011;50277;52.064;4.492;2024-03-22T07:08:55;24.98;;;7.93;;
64029;SDS011;50277;52.064;4.492;2024-03-22T07:11:20;25.33;;;8.75;;
64029;SDS011;50277;52.064;4.492;2024-03-22T07:13:46;24.52;;;8.27;;
64029;SDS011;50277;52.064;4.492;2024-03-22T07:16:11;31.65;;;8.10;;
64029;SDS011;50277;52.064;4.492;2024-03-22T07:18:37;20.40;;;7.80;;
64029;SDS011;50277;52.064;4.492;2024-03-22T07:21:02;18.55;;;8.20;;
64029;SDS011;50277;52.064;4.492;2024-03-22T07:23:28;22.98;;;7.75;;
64029;SDS011;50277;52.064;4.492;2024-03-22T07:25:54;20.10;;;8.18;;
64029;SDS011;50277;52.064;4.492;2024-03-22T07:28:19;22.55;;;8.35;;
64029;SDS011;50277;52.064;4.492;2024-03-22T07:30:45;26.50;;;7.53;;
64029;SDS011;50277;52.064;4.492;2024-03-22T07:33:10;19.80;;;7.40;;
64029;SDS011;50277;52.064;4.492;2024-03-22T07:35:38;19.60;;;7.63;;
64029;SDS011;50277;52.064;4.492;2024-03-22T07:38:04;20.05;;;7.28;;
64029;SDS011;50277;52.064;4.492;2024-03-22T07:40:30;29.50;;;8.60;;
64029;SDS011;50277;52.064;4.492;2024-03-22T07:42:55;23.40;;;6.82;;
64029;SDS011;50277;52.064;4.492;2024-03-22T07:45:20;18.17;;;7.18;;
64029;SDS011;50277;52.064;4.492;2024-03-22T07:47:46;21.10;;;6.63;;
64029;SDS011;50277;52.064;4.492;2024-03-22T07:50:11;19.08;;;6.43;;
64029;SDS011;50277;52.064;4.492;2024-03-22T07:52:36;22.63;;;7.18;;
64029;SDS011;50277;52.064;4.492;2024-03-22T07:55:02;22.95;;;7.10;;
64029;SDS011;50277;52.064;4.492;2024-03-22T07:57:28;21.55;;;6.70;;
64029;SDS011;50277;52.064;4.492;2024-03-22T07:59:56;22.10;;;6.95;;
64029;SDS011;50277;52.064;4.492;2024-03-22T08:02:22;23.77;;;7.13;;
64029;SDS011;50277;52.064;4.492;2024-03-22T08:04:47;22.25;;;7.38;;
64029;SDS011;50277;52.064;4.492;2024-03-22T08:07:13;21.02;;;7.45;;
64029;SDS011;50277;52.064;4.492;2024-03-22T08:09:39;20.00;;;6.88;;
64029;SDS011;50277;52.064;4.492;2024-03-22T08:12:05;24.83;;;7.80;;
64029;SDS011;50277;52.064;4.492;2024-03-22T08:14:31;28.38;;;7.55;;
64029;SDS011;50277;52.064;4.492;2024-03-22T08:16:56;15.75;;;6.75;;
64029;SDS011;50277;52.064;4.492;2024-03-22T08:19:22;22.05;;;7.00;;
64029;SDS011;50277;52.064;4.492;2024-03-22T08:21:47;25.80;;;7.65;;
64029;SDS011;50277;52.064;4.492;2024-03-22T08:24:12;25.00;;;7.00;;
64029;SDS011;50277;52.064;4.492;2024-03-22T08:26:37;25.25;;;9.07;;
64029;SDS011;50277;52.064;4.492;2024-03-22T08:29:03;23.48;;;7.78;;
64029;SDS011;50277;52.064;4.492;2024-03-22T08:31:28;21.52;;;8.07;;
64029;SDS011;50277;52.064;4.492;2024-03-22T08:33:53;25.75;;;7.75;;
64029;SDS011;50277;52.064;4.492;2024-03-22T08:36:20;22.92;;;7.68;;
64029;SDS011;50277;52.064;4.492;2024-03-22T08:38:46;24.08;;;8.23;;
64029;SDS011;50277;52.064;4.492;2024-03-22T08:41:11;19.88;;;7.20;;
64029;SDS011;50277;52.064;4.492;2024-03-22T08:43:37;25.15;;;8.25;;
64029;SDS011;50277;52.064;4.492;2024-03-22T08:46:05;19.67;;;7.32;;
64029;SDS011;50277;52.064;4.492;2024-03-22T08:48:30;25.35;;;7.60;;
64029;SDS011;50277;52.064;4.492;2024-03-22T08:50:55;20.83;;;7.65;;
64029;SDS011;50277;52.064;4.492;2024-03-22T08:53:21;21.95;;;7.22;;
64029;SDS011;50277;52.064;4.492;2024-03-22T08:55:47;27.08;;;8.98;;
64029;SDS011;50277;52.064;4.492;2024-03-22T08:58:13;26.52;;;8.38;;
64029;SDS011;50277;52.064;4.492;2024-03-22T09:00:42;20.27;;;8.02;;
64029;SDS011;50277;52.064;4.492;2024-03-22T09:03:08;22.90;;;8.65;;
64029;SDS011;50277;52.064;4.492;2024-03-22T09:05:34;19.77;;;7.70;;
64029;SDS011;50277;52.064;4.492;2024-03-22T09:07:59;25.02;;;7.88;;
64029;SDS011;50277;52.064;4.492;2024-03-22T09:10:25;20.20;;;7.95;;
64029;SDS011;50277;52.064;4.492;2024-03-22T09:12:51;20.77;;;7.72;;
64029;SDS011;50277;52.064;4.492;2024-03-22T09:15:16;20.08;;;8.75;;
64029;SDS011;50277;52.064;4.492;2024-03-22T09:17:42;22.35;;;8.00;;
64029;SDS011;50277;52.064;4.492;2024-03-22T09:20:07;22.95;;;7.93;;
64029;SDS011;50277;52.064;4.492;2024-03-22T09:22:33;22.55;;;8.43;;
64029;SDS011;50277;52.064;4.492;2024-03-22T09:24:59;19.67;;;8.20;;
64029;SDS011;50277;52.064;4.492;2024-03-22T09:27:24;26.85;;;8.30;;
64029;SDS011;50277;52.064;4.492;2024-03-22T09:29:49;21.00;;;8.82;;
64029;SDS011;50277;52.064;4.492;2024-03-22T09:32:15;17.83;;;7.45;;
64029;SDS011;50277;52.064;4.492;2024-03-22T09:34:40;20.02;;;8.57;;
64029;SDS011;50277;52.064;4.492;2024-03-22T09:37:05;27.63;;;8.60;;
64029;SDS011;50277;52.064;4.492;2024-03-22T09:39:31;19.80;;;8.55;;
64029;SDS011;50277;52.064;4.492;2024-03-22T09:41:57;16.55;;;7.30;;
64029;SDS011;50277;52.064;4.492;2024-03-22T09:44:24;19.73;;;7.97;;
64029;SDS011;50277;52.064;4.492;2024-03-22T09:46:52;19.48;;;8.20;;
64029;SDS011;50277;52.064;4.492;2024-03-22T09:49:18;17.45;;;8.45;;
64029;SDS011;50277;52.064;4.492;2024-03-22T09:51:43;18.20;;;7.57;;
64029;SDS011;50277;52.064;4.492;2024-03-22T09:54:09;25.23;;;9.70;;
64029;SDS011;50277;52.064;4.492;2024-03-22T09:56:35;17.90;;;7.95;;
64029;SDS011;50277;52.064;4.492;2024-03-22T09:59:03;17.60;;;8.45;;
64029;SDS011;50277;52.064;4.492;2024-03-22T10:01:29;20.45;;;8.70;;
64029;SDS011;50277;52.064;4.492;2024-03-22T10:03:55;19.83;;;8.73;;
64029;SDS011;50277;52.064;4.492;2024-03-22T10:06:20;17.38;;;8.48;;
64029;SDS011;50277;52.064;4.492;2024-03-22T10:08:45;16.23;;;8.20;;
64029;SDS011;50277;52.064;4.492;2024-03-22T10:11:11;21.83;;;8.38;;
64029;SDS011;50277;52.064;4.492;2024-03-22T10:13:37;18.60;;;8.95;;
64029;SDS011;50277;52.064;4.492;2024-03-22T10:16:02;11.30;;;7.28;;
64029;SDS011;50277;52.064;4.492;2024-03-22T10:18:28;15.95;;;8.75;;
64029;SDS011;50277;52.064;4.492;2024-03-22T10:21:03;18.65;;;7.65;;
64029;SDS011;50277;52.064;4.492;2024-03-22T10:23:29;16.27;;;7.85;;
64029;SDS011;50277;52.064;4.492;2024-03-22T10:25:58;20.58;;;8.32;;
64029;SDS011;50277;52.064;4.492;2024-03-22T10:28:25;14.48;;;7.63;;
64029;SDS011;50277;52.064;4.492;2024-03-22T10:30:51;14.25;;;8.20;;
64029;SDS011;50277;52.064;4.492;2024-03-22T10:35:47;17.45;;;7.20;;
64029;SDS011;50277;52.064;4.492;2024-03-22T10:38:16;16.52;;;8.35;;
64029;SDS011;50277;52.064;4.492;2024-03-22T10:40:44;13.95;;;8.02;;
64029;SDS011;50277;52.064;4.492;2024-03-22T10:43:11;15.50;;;8.48;;
64029;SDS011;50277;52.064;4.492;2024-03-22T10:45:36;15.50;;;8.07;;
64029;SDS011;50277;52.064;4.492;2024-03-22T10:48:03;13.57;;;7.90;;
64029;SDS011;50277;52.064;4.492;2024-03-22T10:50:35;17.15;;;8.63;;
64029;SDS011;50277;52.064;4.492;2024-03-22T10:53:04;17.42;;;8.50;;
64029;SDS011;50277;52.064;4.492;2024-03-22T10:58:03;17.60;;;8.65;;
64029;SDS011;50277;52.064;4.492;2024-03-22T11:00:32;22.02;;;8.85;;
64029;SDS011;50277;52.064;4.492;2024-03-22T11:02:58;14.20;;;9.05;;
64029;SDS011;50277;52.064;4.492;2024-03-22T11:05:25;22.42;;;9.55;;
64029;SDS011;50277;52.064;4.492;2024-03-22T11:08:01;23.20;;;10.43;;
64029;SDS011;50277;52.064;4.492;2024-03-22T11:10:30;19.73;;;10.32;;
64029;SDS011;50277;52.064;4.492;2024-03-22T11:13:01;21.33;;;10.65;;
64029;SDS011;50277;52.064;4.492;2024-03-22T11:15:31;15.48;;;9.68;;
64029;SDS011;50277;52.064;4.492;2024-03-22T11:17:57;19.10;;;10.70;;
64029;SDS011;50277;52.064;4.492;2024-03-22T11:20:24;19.77;;;10.82;;
64029;SDS011;50277;52.064;4.492;2024-03-22T11:22:50;25.75;;;10.85;;
64029;SDS011;50277;52.064;4.492;2024-03-22T11:25:19;24.73;;;11.57;;
64029;SDS011;50277;52.064;4.492;2024-03-22T11:27:45;21.80;;;10.43;;
64029;SDS011;50277;52.064;4.492;2024-03-22T11:30:11;21.08;;;11.02;;
64029;SDS011;50277;52.064;4.492;2024-03-22T11:32:36;17.83;;;10.13;;
64029;SDS011;50277;52.064;4.492;2024-03-22T11:35:09;23.70;;;10.52;;
64029;SDS011;50277;52.064;4.492;2024-03-22T11:37:35;20.05;;;10.10;;
64029;SDS011;50277;52.064;4.492;2024-03-22T11:40:00;25.17;;;10.05;;
64029;SDS011;50277;52.064;4.492;2024-03-22T11:42:30;22.85;;;10.02;;
64029;SDS011;50277;52.064;4.492;2024-03-22T11:44:56;32.08;;;10.75;;
64029;SDS011;50277;52.064;4.492;2024-03-22T11:47:22;19.95;;;10.05;;
64029;SDS011;50277;52.064;4.492;2024-03-22T11:49:47;17.85;;;9.15;;
64029;SDS011;50277;52.064;4.492;2024-03-22T11:52:12;26.67;;;10.07;;
64029;SDS011;50277;52.064;4.492;2024-03-22T11:54:39;17.63;;;8.85;;
64029;SDS011;50277;52.064;4.492;2024-03-22T11:57:04;19.80;;;9.57;;
64029;SDS011;50277;52.064;4.492;2024-03-22T11:59:30;26.10;;;10.65;;
64029;SDS011;50277;52.064;4.492;2024-03-22T12:01:55;20.08;;;10.15;;
64029;SDS011;50277;52.064;4.492;2024-03-22T12:04:20;16.42;;;9.20;;
64029;SDS011;50277;52.064;4.492;2024-03-22T12:06:47;20.38;;;9.32;;
64029;SDS011;50277;52.064;4.492;2024-03-22T12:09:13;28.65;;;10.07;;
64029;SDS011;50277;52.064;4.492;2024-03-22T12:11:39;16.95;;;9.35;;
64029;SDS011;50277;52.064;4.492;2024-03-22T12:14:04;22.75;;;9.68;;
64029;SDS011;50277;52.064;4.492;2024-03-22T12:16:30;15.98;;;9.15;;
64029;SDS011;50277;52.064;4.492;2024-03-22T12:18:55;13.68;;;8.40;;
64029;SDS011;50277;52.064;4.492;2024-03-22T12:21:20;17.50;;;7.80;;
64029;SDS011;50277;52.064;4.492;2024-03-22T12:23:46;18.17;;;7.40;;
64029;SDS011;50277;52.064;4.492;2024-03-22T12:26:11;20.98;;;7.00;;
64029;SDS011;50277;52.064;4.492;2024-03-22T12:28:36;13.80;;;7.55;;
64029;SDS011;50277;52.064;4.492;2024-03-22T12:31:02;15.43;;;7.32;;
64029;SDS011;50277;52.064;4.492;2024-03-22T12:33:29;15.15;;;6.82;;
64029;SDS011;50277;52.064;4.492;2024-03-22T12:35:54;14.73;;;6.88;;
64029;SDS011;50277;52.064;4.492;2024-03-22T12:38:20;15.82;;;7.55;;
64029;SDS011;50277;52.064;4.492;2024-03-22T12:40:45;16.38;;;8.25;;
64029;SDS011;50277;52.064;4.492;2024-03-22T12:43:10;14.50;;;7.95;;
64029;SDS011;50277;52.064;4.492;2024-03-22T12:45:36;18.65;;;9.20;;
64029;SDS011;50277;52.064;4.492;2024-03-22T12:48:02;16.45;;;8.65;;
64029;SDS011;50277;52.064;4.492;2024-03-22T12:50:27;23.50;;;10.45;;
64029;SDS011;50277;52.064;4.492;2024-03-22T12:52:52;16.80;;;10.20;;
64029;SDS011;50277;52.064;4.492;2024-03-22T12:55:18;26.13;;;11.15;;
64029;SDS011;50277;52.064;4.492;2024-03-22T12:57:43;19.88;;;9.93;;
64029;SDS011;50277;52.064;4.492;2024-03-22T13:00:09;19.42;;;10.75;;
64029;SDS011;50277;52.064;4.492;2024-03-22T13:02:43;25.40;;;11.15;;
64029;SDS011;50277;52.064;4.492;2024-03-22T13:05:12;25.85;;;10.40;;
64029;SDS011;50277;52.064;4.492;2024-03-22T13:07:37;22.40;;;11.57;;
64029;SDS011;50277;52.064;4.492;2024-03-22T13:10:03;24.40;;;10.23;;
64029;SDS011;50277;52.064;4.492;2024-03-22T13:12:28;19.45;;;10.10;;
64029;SDS011;50277;52.064;4.492;2024-03-22T13:14:56;23.40;;;10.75;;
64029;SDS011;50277;52.064;4.492;2024-03-22T13:17:22;16.98;;;9.55;;
64029;SDS011;50277;52.064;4.492;2024-03-22T13:19:47;22.20;;;10.23;;
64029;SDS011;50277;52.064;4.492;2024-03-22T13:22:14;19.65;;;9.90;;
64029;SDS011;50277;52.064;4.492;2024-03-22T13:24:43;25.25;;;10.05;;
64029;SDS011;50277;52.064;4.492;2024-03-22T13:27:08;25.75;;;8.80;;
64029;SDS011;50277;52.064;4.492;2024-03-22T13:29:34;21.23;;;9.23;;
64029;SDS011;50277;52.064;4.492;2024-03-22T13:31:59;17.58;;;8.48;;
64029;SDS011;50277;52.064;4.492;2024-03-22T13:34:24;22.67;;;9.10;;
64029;SDS011;50277;52.064;4.492;2024-03-22T13:36:51;18.83;;;8.68;;
64029;SDS011;50277;52.064;4.492;2024-03-22T13:39:17;20.40;;;8.82;;
64029;SDS011;50277;52.064;4.492;2024-03-22T13:41:42;16.23;;;8.30;;
64029;SDS011;50277;52.064;4.492;2024-03-22T13:44:07;20.60;;;10.52;;
64029;SDS011;50277;52.064;4.492;2024-03-22T13:46:33;18.05;;;9.57;;
64029;SDS011;50277;52.064;4.492;2024-03-22T13:49:01;19.95;;;9.15;;
64029;SDS011;50277;52.064;4.492;2024-03-22T13:51:28;22.52;;;8.93;;
64029;SDS011;50277;52.064;4.492;2024-03-22T13:53:54;17.20;;;9.05;;
64029;SDS011;50277;52.064;4.492;2024-03-22T13:56:20;18.23;;;9.05;;
64029;SDS011;50277;52.064;4.492;2024-03-22T13:58:45;18.88;;;9.02;;
64029;SDS011;50277;52.064;4.492;2024-03-22T14:01:10;19.70;;;8.90;;
64029;SDS011;50277;52.064;4.492;2024-03-22T14:03:36;14.35;;;7.95;;
64029;SDS011;50277;52.064;4.492;2024-03-22T14:06:01;18.75;;;8.88;;
64029;SDS011;50277;52.064;4.492;2024-03-22T14:08:28;19.42;;;9.68;;
64029;SDS011;50277;52.064;4.492;2024-03-22T14:10:54;19.17;;;9.70;;
64029;SDS011;50277;52.064;4.492;2024-03-22T14:13:19;26.77;;;10.05;;
64029;SDS011;50277;52.064;4.492;2024-03-22T14:15:44;20.45;;;8.63;;
64029;SDS011;50277;52.064;4.492;2024-03-22T14:18:10;18.08;;;8.02;;
64029;SDS011;50277;52.064;4.492;2024-03-22T14:20:35;22.30;;;7.72;;
64029;SDS011;50277;52.064;4.492;2024-03-22T14:23:01;26.02;;;7.75;;
64029;SDS011;50277;52.064;4.492;2024-03-22T14:25:27;18.17;;;8.07;;